ENEV/EVE METAR and TAF weather

Enter ICAO airport designator
Station Type Date Time Source
ENEV METAR 2022/07/03 13:50 UTC NOAA

ENEV 031350Z 18008KT 150V230 9999 SCT038 18/11 Q1011 RMK WIND 1400FT 22007KT


Station Type Date Time Source
ENEV Decoded METAR 2022/07/03 13:50 UTC NOAA

Evenes, Norway (ENEV) 68-31N 016-41E 26M
Jul 03, 2022 - 09:50 AM EDT / 2022.07.03 1350 UTC
Wind: from the S (180 degrees) at 9 MPH (8 KT) (direction variable):0
Visibility: greater than 7 mile(s):0
Sky conditions: partly cloudy
Temperature: 64 F (18 C)
Dew Point: 51 F (11 C)
Relative Humidity: 63%
Pressure (altimeter): 29.85 in. Hg (1011 hPa)
ob: ENEV 031350Z 18008KT 150V230 9999 SCT038 18/11 Q1011 RMK WIND 1400FT 22007KT
cycle: 14

Station Type Date Time Source
ENEV TAF 2022/07/03 12:57 UTC NOAA

TAF ENEV 031100Z 0312/0412 24008KT 9999 SCT020 BKN035
TEMPO 0320/0324 SHRA FEW040CB PROB30 0320/0324 TS
TEMPO 0407/0412 FEW040CB

Example: see airport list